createdAt,value
2022-07-25T00:03:39.276Z,2.90
2022-07-25T00:07:53.889Z,3.13
2022-07-25T00:12:08.112Z,3.63
2022-07-25T00:16:26.384Z,3.00
2022-07-25T00:20:40.156Z,3.35
2022-07-25T00:24:53.928Z,3.28
2022-07-25T00:29:07.948Z,3.30
2022-07-25T00:33:23.182Z,3.00
2022-07-25T00:37:36.958Z,3.38
2022-07-25T00:41:50.795Z,3.13
2022-07-25T00:46:04.625Z,3.80
2022-07-25T00:50:19.995Z,3.22
2022-07-25T00:54:34.226Z,3.88
2022-07-25T00:58:48.166Z,3.50
2022-07-25T01:03:02.049Z,3.10
2022-07-25T01:07:18.451Z,3.60
2022-07-25T01:11:32.360Z,3.42
2022-07-25T01:15:46.332Z,3.50
2022-07-25T01:20:00.238Z,3.30
2022-07-25T01:24:15.387Z,3.50
2022-07-25T01:28:29.661Z,3.90
2022-07-25T01:32:44.005Z,4.07
2022-07-25T01:36:57.872Z,3.97
2022-07-25T01:41:13.049Z,3.47
2022-07-25T01:45:36.874Z,3.80
2022-07-25T01:49:50.881Z,4.00
2022-07-25T01:54:05.745Z,3.97
2022-07-25T01:58:25.713Z,4.17
2022-07-25T02:02:39.650Z,4.07
2022-07-25T02:06:53.384Z,4.20
2022-07-25T02:11:07.400Z,4.30
2022-07-25T02:15:22.492Z,4.53
2022-07-25T02:19:36.718Z,4.07
2022-07-25T02:23:50.808Z,4.90
2022-07-25T02:28:04.817Z,4.60
2022-07-25T02:32:20.116Z,5.18
2022-07-25T02:36:34.149Z,4.75
2022-07-25T02:40:47.942Z,4.33
2022-07-25T02:45:01.698Z,4.97
2022-07-25T02:49:16.852Z,4.70
2022-07-25T02:53:54.799Z,5.23
2022-07-25T02:58:04.543Z,5.10
2022-07-25T03:02:18.353Z,5.20
2022-07-25T03:06:33.457Z,5.40
2022-07-25T03:10:47.464Z,4.60
2022-07-25T03:15:01.806Z,4.90
2022-07-25T03:19:15.508Z,5.10
2022-07-25T03:23:31.114Z,5.23
2022-07-25T03:27:44.861Z,5.40
2022-07-25T03:31:59.389Z,5.25
2022-07-25T03:36:13.195Z,5.07
2022-07-25T03:40:28.326Z,4.95
2022-07-25T03:44:42.216Z,4.95
2022-07-25T03:48:56.499Z,5.10
2022-07-25T03:53:10.227Z,5.65
2022-07-25T03:57:25.500Z,5.55
2022-07-25T04:01:39.447Z,5.65
2022-07-25T04:05:53.194Z,5.73
2022-07-25T04:10:08.153Z,5.80
2022-07-25T04:14:23.443Z,5.30
2022-07-25T04:18:37.413Z,6.00
2022-07-25T04:22:51.810Z,6.03
2022-07-25T04:27:05.785Z,5.63
2022-07-25T04:31:21.062Z,6.40
2022-07-25T04:35:34.818Z,5.97
2022-07-25T04:39:48.531Z,6.47
2022-07-25T04:44:02.334Z,5.68
2022-07-25T04:48:17.596Z,6.13
2022-07-25T04:52:31.353Z,6.43
2022-07-25T04:56:45.076Z,6.40
2022-07-25T05:00:58.825Z,6.43
2022-07-25T05:05:21.173Z,6.57
2022-07-25T05:09:35.557Z,6.70
2022-07-25T05:13:49.327Z,6.20
2022-07-25T05:18:03.568Z,6.18
2022-07-25T05:22:18.756Z,6.55
2022-07-25T05:26:32.559Z,6.75
2022-07-25T05:30:46.345Z,5.93
2022-07-25T05:35:00.216Z,5.97
2022-07-25T05:39:15.392Z,5.93
2022-07-25T05:43:29.271Z,6.73
2022-07-25T05:47:42.996Z,6.93
2022-07-25T05:51:56.682Z,7.00
2022-07-25T05:56:12.094Z,6.93
2022-07-25T06:00:26.272Z,5.90
2022-07-25T06:04:40.040Z,6.82
2022-07-25T06:08:54.236Z,6.80
2022-07-25T06:13:10.136Z,7.10
2022-07-25T06:17:26.960Z,7.10
2022-07-25T06:21:44.385Z,6.30
2022-07-25T06:25:58.255Z,6.90
2022-07-25T06:30:19.780Z,7.18
2022-07-25T06:34:34.272Z,6.40
2022-07-25T06:38:47.992Z,6.13
2022-07-25T06:43:02.444Z,6.57
2022-07-25T06:47:17.551Z,7.05
2022-07-25T06:51:31.523Z,6.55
2022-07-25T06:55:45.528Z,6.47
2022-07-25T06:59:59.934Z,7.05
2022-07-25T07:04:15.064Z,7.00
2022-07-25T07:08:28.829Z,6.87
2022-07-25T07:12:42.736Z,6.82
2022-07-25T07:16:56.549Z,7.13
2022-07-25T07:21:11.761Z,7.40
2022-07-25T07:25:35.838Z,7.20
2022-07-25T07:29:49.700Z,7.10
2022-07-25T07:34:03.576Z,7.13
2022-07-25T07:38:19.016Z,6.87
2022-07-25T07:42:39.142Z,6.78
2022-07-25T07:46:53.050Z,6.82
2022-07-25T07:51:07.701Z,7.50
2022-07-25T07:55:41.201Z,6.55
2022-07-25T07:59:54.928Z,6.80
2022-07-25T08:04:10.219Z,6.93
2022-07-25T08:08:27.853Z,7.43
2022-07-25T08:12:46.027Z,6.65
2022-07-25T08:16:59.820Z,6.47
2022-07-25T08:21:13.741Z,6.40
2022-07-25T08:25:27.650Z,6.38
2022-07-25T08:29:43.660Z,5.97
2022-07-25T08:33:57.568Z,6.77
2022-07-25T08:38:12.127Z,6.40
2022-07-25T08:42:25.895Z,5.93
2022-07-25T08:46:42.635Z,5.43
2022-07-25T08:50:58.172Z,6.32
2022-07-25T08:55:14.729Z,6.30
2022-07-25T08:59:31.767Z,6.70
2022-07-25T09:03:47.205Z,6.60
2022-07-25T09:08:08.711Z,6.20
2022-07-25T09:12:27.176Z,6.32
2022-07-25T09:16:44.619Z,6.40
2022-07-25T09:21:01.530Z,6.22
2022-07-25T09:25:27.339Z,6.50
2022-07-25T09:29:42.742Z,5.40
2022-07-25T09:33:59.318Z,6.53
2022-07-25T09:38:15.992Z,6.30
2022-07-25T09:42:33.373Z,6.20
2022-07-25T09:46:47.532Z,6.63
2022-07-25T09:51:02.745Z,6.28
2022-07-25T09:55:17.893Z,6.43
2022-07-25T09:59:32.341Z,6.50
2022-07-25T10:03:53.048Z,6.70
2022-07-25T10:08:08.663Z,6.25
2022-07-25T10:12:25.129Z,6.10
2022-07-25T10:16:47.166Z,6.35
2022-07-25T10:21:28.701Z,5.25
2022-07-25T10:25:48.705Z,6.20
2022-07-25T10:30:04.649Z,6.50
2022-07-25T10:34:28.785Z,5.63
2022-07-25T10:38:47.332Z,5.90
2022-07-25T10:43:19.648Z,6.50
2022-07-25T10:47:38.244Z,6.32
2022-07-25T10:51:57.580Z,4.50
2022-07-25T10:56:14.909Z,6.47
2022-07-25T11:00:29.185Z,5.93
2022-07-25T11:04:45.003Z,6.10
2022-07-25T11:09:01.260Z,6.53
2022-07-25T11:13:16.731Z,4.60
2022-07-25T11:17:30.768Z,5.95
2022-07-25T11:21:47.789Z,5.88
2022-07-25T11:26:12.258Z,5.97
2022-07-25T11:30:27.702Z,6.35
2022-07-25T11:34:44.280Z,6.05
2022-07-25T11:38:59.528Z,6.57
2022-07-25T11:43:21.286Z,6.50
2022-07-25T11:47:35.286Z,6.13
2022-07-25T11:51:49.079Z,5.80
2022-07-25T11:56:40.806Z,5.70
2022-07-25T12:00:51.148Z,6.00
2022-07-25T12:05:06.761Z,6.00
2022-07-25T12:09:23.244Z,6.43
2022-07-25T12:13:38.439Z,4.70
2022-07-25T12:17:53.251Z,6.00
2022-07-25T12:22:07.200Z,6.33
2022-07-25T12:26:21.278Z,6.70
2022-07-25T12:30:37.701Z,7.30
2022-07-25T12:34:51.851Z,7.03
2022-07-25T12:39:05.918Z,6.03
2022-07-25T12:43:20.071Z,7.25
2022-07-25T12:47:35.402Z,6.88
2022-07-25T12:51:50.791Z,6.40
2022-07-25T12:56:06.751Z,5.93
2022-07-25T13:00:23.123Z,5.05
2022-07-25T13:04:38.466Z,6.47
2022-07-25T13:08:52.328Z,6.50
2022-07-25T13:13:06.270Z,6.25
2022-07-25T13:17:24.948Z,6.55
2022-07-25T13:21:42.739Z,5.37
2022-07-25T13:25:56.815Z,6.38
2022-07-25T13:30:11.700Z,6.22
2022-07-25T13:34:25.532Z,6.20
2022-07-25T13:38:41.529Z,6.28
2022-07-25T13:42:55.430Z,6.32
2022-07-25T13:47:09.310Z,6.53
2022-07-25T13:51:23.354Z,5.03
2022-07-25T13:55:39.094Z,6.45
2022-07-25T13:59:52.848Z,5.93
2022-07-25T14:04:06.933Z,5.97
2022-07-25T14:08:20.740Z,6.13
2022-07-25T14:12:36.193Z,5.80
2022-07-25T14:16:50.523Z,6.30
2022-07-25T14:21:04.615Z,6.07
2022-07-25T14:25:19.708Z,6.60
2022-07-25T14:29:38.244Z,6.10
2022-07-25T14:33:52.242Z,9.07
2022-07-25T14:38:06.807Z,7.32
2022-07-25T14:42:20.884Z,6.18
2022-07-25T14:46:36.330Z,6.40
2022-07-25T14:50:50.468Z,6.25
2022-07-25T14:55:04.695Z,6.38
2022-07-25T14:59:20.301Z,6.43
2022-07-25T15:03:35.496Z,6.65
2022-07-25T15:07:49.369Z,6.25
2022-07-25T15:12:03.193Z,6.10
2022-07-25T15:16:18.020Z,6.50
2022-07-25T15:20:33.544Z,6.00
2022-07-25T15:25:17.919Z,6.50
2022-07-25T15:29:21.601Z,6.40
2022-07-25T15:33:35.683Z,7.10
2022-07-25T15:37:50.866Z,6.47
2022-07-25T15:42:04.686Z,6.60
2022-07-25T15:46:18.541Z,6.60
2022-07-25T15:50:34.548Z,6.78
2022-07-25T15:54:49.687Z,6.60
2022-07-25T15:59:03.731Z,6.50
2022-07-25T16:03:17.532Z,6.65
2022-07-25T16:07:31.379Z,7.03
2022-07-25T16:11:47.344Z,7.00
2022-07-25T16:16:01.214Z,7.30
2022-07-25T16:20:15.093Z,7.30
2022-07-25T16:24:28.970Z,9.03
2022-07-25T16:28:44.300Z,7.25
2022-07-25T16:32:58.144Z,8.13
2022-07-25T16:37:12.734Z,8.23
2022-07-25T16:41:26.705Z,9.10
2022-07-25T16:45:43.109Z,8.43
2022-07-25T16:49:56.864Z,9.23
2022-07-25T16:54:10.715Z,8.20
2022-07-25T16:58:25.132Z,9.20
2022-07-25T17:02:40.390Z,9.32
2022-07-25T17:06:55.315Z,8.87
2022-07-25T17:11:09.130Z,8.80
2022-07-25T17:15:23.025Z,9.20
2022-07-25T17:19:39.889Z,9.00
2022-07-25T17:23:54.706Z,9.50
2022-07-25T17:28:09.249Z,9.80
2022-07-25T17:32:26.439Z,8.85
2022-07-25T17:36:45.014Z,9.60
2022-07-25T17:40:58.740Z,9.85
2022-07-25T17:45:31.312Z,9.60
2022-07-25T17:49:45.070Z,9.53
2022-07-25T17:54:00.355Z,9.23
2022-07-25T17:58:14.182Z,9.48
2022-07-25T18:02:28.029Z,8.90
2022-07-25T18:06:42.012Z,8.73
2022-07-25T18:10:57.205Z,8.82
2022-07-25T18:15:14.365Z,8.85
2022-07-25T18:19:28.133Z,8.23
2022-07-25T18:23:41.882Z,8.57
2022-07-25T18:27:57.158Z,8.63
2022-07-25T18:32:10.892Z,8.83
2022-07-25T18:36:24.746Z,8.77
2022-07-25T18:40:38.673Z,8.50
2022-07-25T18:44:53.906Z,9.00
2022-07-25T18:49:07.747Z,9.40
2022-07-25T18:53:21.622Z,9.60
2022-07-25T18:57:35.646Z,9.07
2022-07-25T19:01:51.206Z,9.10
2022-07-25T19:06:05.815Z,8.90
2022-07-25T19:10:20.021Z,8.82
2022-07-25T19:14:33.814Z,8.97
2022-07-25T19:18:49.013Z,8.88
2022-07-25T19:23:02.864Z,9.23
2022-07-25T19:27:19.906Z,9.43
2022-07-25T19:31:34.288Z,8.77
2022-07-25T19:35:49.543Z,9.73
2022-07-25T19:40:04.185Z,9.07
2022-07-25T19:44:18.248Z,8.40
2022-07-25T19:48:32.233Z,9.60
2022-07-25T19:52:47.684Z,9.88
2022-07-25T19:57:01.580Z,9.60
2022-07-25T20:01:15.440Z,9.30
2022-07-25T20:05:29.306Z,10.40
2022-07-25T20:09:44.442Z,10.20
2022-07-25T20:13:58.686Z,9.80
2022-07-25T20:18:17.387Z,9.60
2022-07-25T20:22:37.388Z,10.32
2022-07-25T20:26:52.485Z,9.67
2022-07-25T20:31:06.588Z,9.93
2022-07-25T20:35:20.432Z,10.45
2022-07-25T20:39:35.108Z,9.57
2022-07-25T20:43:50.244Z,10.35
2022-07-25T20:48:04.243Z,10.02
2022-07-25T20:52:18.254Z,9.70
2022-07-25T20:56:32.069Z,9.95
2022-07-25T21:00:47.391Z,9.85
2022-07-25T21:05:02.384Z,9.40
2022-07-25T21:09:16.499Z,8.87
2022-07-25T21:13:32.538Z,9.60
2022-07-25T21:17:48.408Z,9.50
2022-07-25T21:22:04.005Z,9.30
2022-07-25T21:26:17.827Z,9.35
2022-07-25T21:30:31.628Z,10.35
2022-07-25T21:34:47.345Z,9.03
2022-07-25T21:39:01.057Z,9.98
2022-07-25T21:43:14.802Z,10.10
2022-07-25T21:47:28.524Z,10.50
2022-07-25T21:51:43.611Z,10.17
2022-07-25T21:55:57.819Z,11.05
2022-07-25T22:00:13.784Z,10.13
2022-07-25T22:04:27.728Z,9.70
2022-07-25T22:08:42.934Z,9.27
2022-07-25T22:12:56.805Z,8.95
2022-07-25T22:17:10.534Z,9.00
2022-07-25T22:21:24.390Z,8.30
2022-07-25T22:25:39.588Z,8.02
2022-07-25T22:29:53.340Z,8.00
2022-07-25T22:34:07.154Z,7.83
2022-07-25T22:38:21.002Z,8.35
2022-07-25T22:42:36.526Z,7.72
2022-07-25T22:46:50.380Z,7.53
2022-07-25T22:51:04.103Z,8.40
2022-07-25T22:55:17.949Z,8.38
2022-07-25T22:59:33.530Z,9.40
2022-07-25T23:03:47.622Z,8.63
2022-07-25T23:08:01.471Z,8.77
2022-07-25T23:12:15.366Z,8.60
2022-07-25T23:16:30.584Z,8.80
2022-07-25T23:20:44.453Z,8.85
2022-07-25T23:24:58.676Z,7.57
2022-07-25T23:29:12.639Z,7.37
2022-07-25T23:33:27.808Z,7.13
2022-07-25T23:37:43.261Z,7.32
2022-07-25T23:41:57.040Z,7.27
2022-07-25T23:46:10.822Z,7.32
2022-07-25T23:50:27.415Z,7.50
2022-07-25T23:54:41.145Z,7.57
2022-07-25T23:58:54.933Z,7.13
